sensor_id;sensor_type;location;lat;lon;timestamp;P1;durP1;ratioP1;P2;durP2;ratioP2
68854;SDS011;55859;55.710;12.464;2022-07-23T00:02:14;6.20;;;2.25;;
68854;SDS011;55859;55.710;12.464;2022-07-23T00:04:39;9.87;;;2.27;;
68854;SDS011;55859;55.710;12.464;2022-07-23T00:07:04;7.05;;;1.90;;
68854;SDS011;55859;55.710;12.464;2022-07-23T00:09:30;4.20;;;1.80;;
68854;SDS011;55859;55.710;12.464;2022-07-23T00:11:56;7.90;;;2.22;;
68854;SDS011;55859;55.710;12.464;2022-07-23T00:14:21;8.50;;;2.08;;
68854;SDS011;55859;55.710;12.464;2022-07-23T00:16:46;3.27;;;1.80;;
68854;SDS011;55859;55.710;12.464;2022-07-23T00:19:12;7.83;;;2.33;;
68854;SDS011;55859;55.710;12.464;2022-07-23T00:21:37;6.80;;;2.20;;
68854;SDS011;55859;55.710;12.464;2022-07-23T00:24:03;7.65;;;2.08;;
68854;SDS011;55859;55.710;12.464;2022-07-23T00:26:28;4.13;;;1.88;;
68854;SDS011;55859;55.710;12.464;2022-07-23T00:28:53;8.00;;;1.87;;
68854;SDS011;55859;55.710;12.464;2022-07-23T00:31:19;4.60;;;2.30;;
68854;SDS011;55859;55.710;12.464;2022-07-23T00:33:44;8.33;;;2.50;;
68854;SDS011;55859;55.710;12.464;2022-07-23T00:36:09;8.47;;;2.63;;
68854;SDS011;55859;55.710;12.464;2022-07-23T00:38:35;4.53;;;1.97;;
68854;SDS011;55859;55.710;12.464;2022-07-23T00:41:00;9.50;;;3.07;;
68854;SDS011;55859;55.710;12.464;2022-07-23T00:43:25;8.23;;;2.20;;
68854;SDS011;55859;55.710;12.464;2022-07-23T00:45:50;10.47;;;2.53;;
68854;SDS011;55859;55.710;12.464;2022-07-23T00:48:16;8.82;;;2.35;;
68854;SDS011;55859;55.710;12.464;2022-07-23T00:50:42;3.05;;;1.90;;
68854;SDS011;55859;55.710;12.464;2022-07-23T00:53:08;9.13;;;2.85;;
68854;SDS011;55859;55.710;12.464;2022-07-23T00:55:33;12.65;;;2.20;;
68854;SDS011;55859;55.710;12.464;2022-07-23T00:57:59;5.82;;;2.60;;
68854;SDS011;55859;55.710;12.464;2022-07-23T01:00:26;4.22;;;1.83;;
68854;SDS011;55859;55.710;12.464;2022-07-23T01:02:53;6.78;;;2.67;;
68854;SDS011;55859;55.710;12.464;2022-07-23T01:05:18;8.65;;;2.67;;
68854;SDS011;55859;55.710;12.464;2022-07-23T01:07:47;6.88;;;2.40;;
68854;SDS011;55859;55.710;12.464;2022-07-23T01:10:13;7.55;;;2.83;;
68854;SDS011;55859;55.710;12.464;2022-07-23T01:12:57;10.75;;;2.17;;
68854;SDS011;55859;55.710;12.464;2022-07-23T01:15:27;8.45;;;2.67;;
68854;SDS011;55859;55.710;12.464;2022-07-23T01:17:53;4.57;;;2.13;;
68854;SDS011;55859;55.710;12.464;2022-07-23T01:20:18;5.07;;;1.95;;
68854;SDS011;55859;55.710;12.464;2022-07-23T01:22:44;4.80;;;1.95;;
68854;SDS011;55859;55.710;12.464;2022-07-23T01:25:10;7.03;;;2.28;;
68854;SDS011;55859;55.710;12.464;2022-07-23T01:27:36;14.40;;;2.28;;
68854;SDS011;55859;55.710;12.464;2022-07-23T01:30:02;12.45;;;2.70;;
68854;SDS011;55859;55.710;12.464;2022-07-23T01:32:29;9.50;;;2.10;;
68854;SDS011;55859;55.710;12.464;2022-07-23T01:34:54;4.88;;;2.42;;
68854;SDS011;55859;55.710;12.464;2022-07-23T01:37:19;8.93;;;2.40;;
68854;SDS011;55859;55.710;12.464;2022-07-23T01:39:45;4.30;;;2.03;;
68854;SDS011;55859;55.710;12.464;2022-07-23T01:42:10;7.53;;;2.53;;
68854;SDS011;55859;55.710;12.464;2022-07-23T01:44:35;9.47;;;2.80;;
68854;SDS011;55859;55.710;12.464;2022-07-23T01:47:01;8.50;;;2.90;;
68854;SDS011;55859;55.710;12.464;2022-07-23T01:49:26;4.57;;;2.28;;
68854;SDS011;55859;55.710;12.464;2022-07-23T01:51:51;7.70;;;2.20;;
68854;SDS011;55859;55.710;12.464;2022-07-23T01:54:26;7.32;;;2.42;;
68854;SDS011;55859;55.710;12.464;2022-07-23T01:56:52;3.95;;;2.42;;
68854;SDS011;55859;55.710;12.464;2022-07-23T01:59:18;11.80;;;2.90;;
68854;SDS011;55859;55.710;12.464;2022-07-23T02:01:43;5.47;;;2.45;;
68854;SDS011;55859;55.710;12.464;2022-07-23T02:04:08;11.23;;;3.27;;
68854;SDS011;55859;55.710;12.464;2022-07-23T02:06:34;7.40;;;2.63;;
68854;SDS011;55859;55.710;12.464;2022-07-23T02:08:59;10.00;;;3.03;;
68854;SDS011;55859;55.710;12.464;2022-07-23T02:11:24;5.53;;;3.07;;
68854;SDS011;55859;55.710;12.464;2022-07-23T02:13:50;10.40;;;3.35;;
68854;SDS011;55859;55.710;12.464;2022-07-23T02:16:15;10.13;;;3.30;;
68854;SDS011;55859;55.710;12.464;2022-07-23T02:18:40;10.63;;;2.67;;
68854;SDS011;55859;55.710;12.464;2022-07-23T02:21:05;5.50;;;2.60;;
68854;SDS011;55859;55.710;12.464;2022-07-23T02:23:31;5.15;;;3.20;;
68854;SDS011;55859;55.710;12.464;2022-07-23T02:25:56;7.93;;;2.67;;
68854;SDS011;55859;55.710;12.464;2022-07-23T02:28:21;8.37;;;2.63;;
68854;SDS011;55859;55.710;12.464;2022-07-23T02:30:47;6.67;;;2.97;;
68854;SDS011;55859;55.710;12.464;2022-07-23T02:33:12;7.77;;;3.10;;
68854;SDS011;55859;55.710;12.464;2022-07-23T02:35:37;7.20;;;2.47;;
68854;SDS011;55859;55.710;12.464;2022-07-23T02:38:03;5.03;;;2.50;;
68854;SDS011;55859;55.710;12.464;2022-07-23T02:40:28;7.50;;;3.20;;
68854;SDS011;55859;55.710;12.464;2022-07-23T02:42:53;3.90;;;2.03;;
68854;SDS011;55859;55.710;12.464;2022-07-23T02:45:19;4.47;;;2.47;;
68854;SDS011;55859;55.710;12.464;2022-07-23T02:47:44;2.73;;;2.20;;
68854;SDS011;55859;55.710;12.464;2022-07-23T02:50:09;3.37;;;2.30;;
68854;SDS011;55859;55.710;12.464;2022-07-23T02:52:35;5.57;;;2.42;;
68854;SDS011;55859;55.710;12.464;2022-07-23T02:55:01;9.85;;;2.90;;
68854;SDS011;55859;55.710;12.464;2022-07-23T02:57:26;5.75;;;2.42;;
68854;SDS011;55859;55.710;12.464;2022-07-23T02:59:51;3.47;;;2.17;;
68854;SDS011;55859;55.710;12.464;2022-07-23T03:02:17;4.20;;;2.00;;
68854;SDS011;55859;55.710;12.464;2022-07-23T03:04:42;3.65;;;2.30;;
68854;SDS011;55859;55.710;12.464;2022-07-23T03:07:08;4.53;;;1.98;;
68854;SDS011;55859;55.710;12.464;2022-07-23T03:09:33;8.00;;;1.67;;
68854;SDS011;55859;55.710;12.464;2022-07-23T03:11:59;2.70;;;2.40;;
68854;SDS011;55859;55.710;12.464;2022-07-23T03:14:25;2.10;;;1.80;;
68854;SDS011;55859;55.710;12.464;2022-07-23T03:16:50;4.00;;;2.30;;
68854;SDS011;55859;55.710;12.464;2022-07-23T03:19:15;5.45;;;2.40;;
68854;SDS011;55859;55.710;12.464;2022-07-23T03:21:41;2.60;;;1.40;;
68854;SDS011;55859;55.710;12.464;2022-07-23T03:24:07;4.20;;;1.80;;
68854;SDS011;55859;55.710;12.464;2022-07-23T03:26:35;3.45;;;1.75;;
68854;SDS011;55859;55.710;12.464;2022-07-23T03:29:01;3.70;;;2.22;;
68854;SDS011;55859;55.710;12.464;2022-07-23T03:31:28;6.82;;;2.53;;
68854;SDS011;55859;55.710;12.464;2022-07-23T03:33:57;3.10;;;2.25;;
68854;SDS011;55859;55.710;12.464;2022-07-23T03:36:23;3.30;;;2.60;;
68854;SDS011;55859;55.710;12.464;2022-07-23T03:38:48;3.20;;;1.87;;
68854;SDS011;55859;55.710;12.464;2022-07-23T03:41:13;5.53;;;2.03;;
68854;SDS011;55859;55.710;12.464;2022-07-23T03:43:38;4.50;;;2.10;;
68854;SDS011;55859;55.710;12.464;2022-07-23T03:46:04;2.07;;;1.93;;
68854;SDS011;55859;55.710;12.464;2022-07-23T03:48:30;3.70;;;1.95;;
68854;SDS011;55859;55.710;12.464;2022-07-23T03:50:55;5.40;;;2.47;;
68854;SDS011;55859;55.710;12.464;2022-07-23T03:53:20;5.57;;;2.73;;
68854;SDS011;55859;55.710;12.464;2022-07-23T03:55:46;7.73;;;2.63;;
68854;SDS011;55859;55.710;12.464;2022-07-23T03:58:11;9.63;;;2.03;;
68854;SDS011;55859;55.710;12.464;2022-07-23T04:00:36;3.92;;;2.42;;
68854;SDS011;55859;55.710;12.464;2022-07-23T04:03:02;4.82;;;2.25;;
68854;SDS011;55859;55.710;12.464;2022-07-23T04:05:27;3.63;;;2.23;;
68854;SDS011;55859;55.710;12.464;2022-07-23T04:07:52;5.57;;;2.55;;
68854;SDS011;55859;55.710;12.464;2022-07-23T04:10:18;4.43;;;2.30;;
68854;SDS011;55859;55.710;12.464;2022-07-23T04:12:44;5.28;;;2.53;;
68854;SDS011;55859;55.710;12.464;2022-07-23T04:15:09;2.40;;;2.20;;
68854;SDS011;55859;55.710;12.464;2022-07-23T04:17:35;10.18;;;2.92;;
68854;SDS011;55859;55.710;12.464;2022-07-23T04:20:01;2.97;;;2.57;;
68854;SDS011;55859;55.710;12.464;2022-07-23T04:22:26;5.82;;;2.22;;
68854;SDS011;55859;55.710;12.464;2022-07-23T04:24:52;3.67;;;2.60;;
68854;SDS011;55859;55.710;12.464;2022-07-23T04:27:18;3.57;;;2.50;;
68854;SDS011;55859;55.710;12.464;2022-07-23T04:29:43;3.47;;;2.47;;
68854;SDS011;55859;55.710;12.464;2022-07-23T04:32:09;3.87;;;2.50;;
68854;SDS011;55859;55.710;12.464;2022-07-23T04:34:34;5.57;;;2.53;;
68854;SDS011;55859;55.710;12.464;2022-07-23T04:36:59;2.78;;;2.33;;
68854;SDS011;55859;55.710;12.464;2022-07-23T04:39:25;2.50;;;2.30;;
68854;SDS011;55859;55.710;12.464;2022-07-23T04:41:50;8.40;;;2.70;;
68854;SDS011;55859;55.710;12.464;2022-07-23T04:44:15;2.75;;;2.40;;
68854;SDS011;55859;55.710;12.464;2022-07-23T04:46:41;3.83;;;2.85;;
68854;SDS011;55859;55.710;12.464;2022-07-23T04:49:06;5.80;;;2.90;;
68854;SDS011;55859;55.710;12.464;2022-07-23T04:51:31;2.90;;;2.17;;
68854;SDS011;55859;55.710;12.464;2022-07-23T04:53:57;4.10;;;2.33;;
68854;SDS011;55859;55.710;12.464;2022-07-23T04:56:22;4.63;;;2.40;;
68854;SDS011;55859;55.710;12.464;2022-07-23T04:58:47;6.35;;;2.72;;
68854;SDS011;55859;55.710;12.464;2022-07-23T05:01:13;2.95;;;2.17;;
68854;SDS011;55859;55.710;12.464;2022-07-23T05:03:38;3.90;;;2.28;;
68854;SDS011;55859;55.710;12.464;2022-07-23T05:06:04;4.05;;;2.28;;
68854;SDS011;55859;55.710;12.464;2022-07-23T05:08:29;3.38;;;1.88;;
68854;SDS011;55859;55.710;12.464;2022-07-23T05:10:55;2.20;;;2.00;;
68854;SDS011;55859;55.710;12.464;2022-07-23T05:13:20;3.07;;;1.87;;
68854;SDS011;55859;55.710;12.464;2022-07-23T05:15:46;4.10;;;1.85;;
68854;SDS011;55859;55.710;12.464;2022-07-23T05:18:11;3.55;;;2.13;;
68854;SDS011;55859;55.710;12.464;2022-07-23T05:20:37;3.17;;;1.77;;
68854;SDS011;55859;55.710;12.464;2022-07-23T05:23:02;2.33;;;1.30;;
68854;SDS011;55859;55.710;12.464;2022-07-23T05:25:28;2.17;;;1.60;;
68854;SDS011;55859;55.710;12.464;2022-07-23T05:27:53;3.55;;;1.55;;
68854;SDS011;55859;55.710;12.464;2022-07-23T05:30:19;3.95;;;1.75;;
68854;SDS011;55859;55.710;12.464;2022-07-23T05:32:44;4.57;;;1.50;;
68854;SDS011;55859;55.710;12.464;2022-07-23T05:35:09;1.75;;;1.65;;
68854;SDS011;55859;55.710;12.464;2022-07-23T05:37:35;3.13;;;1.40;;
68854;SDS011;55859;55.710;12.464;2022-07-23T05:40:05;1.50;;;1.35;;
68854;SDS011;55859;55.710;12.464;2022-07-23T05:42:33;2.08;;;1.40;;
68854;SDS011;55859;55.710;12.464;2022-07-23T05:44:58;5.53;;;1.88;;
68854;SDS011;55859;55.710;12.464;2022-07-23T05:47:24;1.50;;;1.17;;
68854;SDS011;55859;55.710;12.464;2022-07-23T05:49:49;1.20;;;1.10;;
68854;SDS011;55859;55.710;12.464;2022-07-23T05:52:15;1.77;;;1.27;;
68854;SDS011;55859;55.710;12.464;2022-07-23T05:54:40;2.00;;;1.33;;
68854;SDS011;55859;55.710;12.464;2022-07-23T05:57:05;10.33;;;1.30;;
68854;SDS011;55859;55.710;12.464;2022-07-23T05:59:31;6.60;;;1.05;;
68854;SDS011;55859;55.710;12.464;2022-07-23T06:01:56;1.10;;;1.00;;
68854;SDS011;55859;55.710;12.464;2022-07-23T06:04:21;1.80;;;0.83;;
68854;SDS011;55859;55.710;12.464;2022-07-23T06:06:47;1.10;;;1.00;;
68854;SDS011;55859;55.710;12.464;2022-07-23T06:09:12;3.00;;;0.90;;
68854;SDS011;55859;55.710;12.464;2022-07-23T06:11:38;0.80;;;0.80;;
68854;SDS011;55859;55.710;12.464;2022-07-23T06:14:04;1.35;;;0.82;;
68854;SDS011;55859;55.710;12.464;2022-07-23T06:16:30;0.73;;;0.60;;
68854;SDS011;55859;55.710;12.464;2022-07-23T06:18:55;0.70;;;0.60;;
68854;SDS011;55859;55.710;12.464;2022-07-23T06:21:20;0.73;;;0.73;;
68854;SDS011;55859;55.710;12.464;2022-07-23T06:23:46;3.00;;;0.80;;
68854;SDS011;55859;55.710;12.464;2022-07-23T06:26:11;3.20;;;0.83;;
68854;SDS011;55859;55.710;12.464;2022-07-23T06:28:36;1.03;;;0.60;;
68854;SDS011;55859;55.710;12.464;2022-07-23T06:31:02;0.90;;;0.90;;
68854;SDS011;55859;55.710;12.464;2022-07-23T06:33:27;1.17;;;0.80;;
68854;SDS011;55859;55.710;12.464;2022-07-23T06:35:52;2.20;;;0.63;;
68854;SDS011;55859;55.710;12.464;2022-07-23T06:38:18;1.65;;;0.80;;
68854;SDS011;55859;55.710;12.464;2022-07-23T06:40:43;1.30;;;1.10;;
68854;SDS011;55859;55.710;12.464;2022-07-23T06:43:09;0.77;;;0.75;;
68854;SDS011;55859;55.710;12.464;2022-07-23T06:45:35;2.08;;;0.80;;
68854;SDS011;55859;55.710;12.464;2022-07-23T06:48:00;0.63;;;0.55;;
68854;SDS011;55859;55.710;12.464;2022-07-23T06:50:27;0.50;;;0.50;;
68854;SDS011;55859;55.710;12.464;2022-07-23T06:52:53;1.30;;;1.20;;
68854;SDS011;55859;55.710;12.464;2022-07-23T06:55:18;1.80;;;0.77;;
68854;SDS011;55859;55.710;12.464;2022-07-23T06:57:43;0.60;;;0.60;;
68854;SDS011;55859;55.710;12.464;2022-07-23T07:00:09;0.52;;;0.52;;
68854;SDS011;55859;55.710;12.464;2022-07-23T07:02:35;0.60;;;0.47;;
68854;SDS011;55859;55.710;12.464;2022-07-23T07:05:00;0.80;;;0.50;;
68854;SDS011;55859;55.710;12.464;2022-07-23T07:07:26;2.05;;;0.70;;
68854;SDS011;55859;55.710;12.464;2022-07-23T07:09:51;0.50;;;0.50;;
68854;SDS011;55859;55.710;12.464;2022-07-23T07:12:17;0.40;;;0.40;;
68854;SDS011;55859;55.710;12.464;2022-07-23T07:14:42;1.03;;;0.70;;
68854;SDS011;55859;55.710;12.464;2022-07-23T07:17:07;1.13;;;0.40;;
68854;SDS011;55859;55.710;12.464;2022-07-23T07:19:33;0.95;;;0.60;;
68854;SDS011;55859;55.710;12.464;2022-07-23T07:21:58;1.30;;;0.47;;
68854;SDS011;55859;55.710;12.464;2022-07-23T07:24:23;1.95;;;0.45;;
68854;SDS011;55859;55.710;12.464;2022-07-23T07:26:49;1.38;;;0.65;;
68854;SDS011;55859;55.710;12.464;2022-07-23T07:29:14;0.40;;;0.40;;
68854;SDS011;55859;55.710;12.464;2022-07-23T07:31:40;0.63;;;0.60;;
68854;SDS011;55859;55.710;12.464;2022-07-23T07:34:05;0.60;;;0.50;;
68854;SDS011;55859;55.710;12.464;2022-07-23T07:36:30;1.48;;;0.60;;
68854;SDS011;55859;55.710;12.464;2022-07-23T07:38:56;1.77;;;0.50;;
68854;SDS011;55859;55.710;12.464;2022-07-23T07:41:21;1.85;;;0.70;;
68854;SDS011;55859;55.710;12.464;2022-07-23T07:43:51;1.38;;;0.60;;
68854;SDS011;55859;55.710;12.464;2022-07-23T07:46:16;0.75;;;0.60;;
68854;SDS011;55859;55.710;12.464;2022-07-23T07:48:42;2.47;;;0.50;;
68854;SDS011;55859;55.710;12.464;2022-07-23T07:51:07;2.03;;;0.67;;
68854;SDS011;55859;55.710;12.464;2022-07-23T07:53:32;1.20;;;0.63;;
68854;SDS011;55859;55.710;12.464;2022-07-23T07:55:58;0.50;;;0.50;;
68854;SDS011;55859;55.710;12.464;2022-07-23T07:58:23;0.60;;;0.60;;
68854;SDS011;55859;55.710;12.464;2022-07-23T08:00:49;2.90;;;0.85;;
68854;SDS011;55859;55.710;12.464;2022-07-23T08:03:14;0.90;;;0.83;;
68854;SDS011;55859;55.710;12.464;2022-07-23T08:05:39;1.92;;;0.70;;
68854;SDS011;55859;55.710;12.464;2022-07-23T08:08:05;1.92;;;0.90;;
68854;SDS011;55859;55.710;12.464;2022-07-23T08:10:30;0.82;;;0.73;;
68854;SDS011;55859;55.710;12.464;2022-07-23T08:12:57;0.98;;;0.80;;
68854;SDS011;55859;55.710;12.464;2022-07-23T08:15:24;1.10;;;0.88;;
68854;SDS011;55859;55.710;12.464;2022-07-23T08:17:51;1.00;;;0.75;;
68854;SDS011;55859;55.710;12.464;2022-07-23T08:20:17;1.25;;;1.08;;
68854;SDS011;55859;55.710;12.464;2022-07-23T08:25:21;1.33;;;1.23;;
68854;SDS011;55859;55.710;12.464;2022-07-23T08:27:48;5.00;;;1.60;;
68854;SDS011;55859;55.710;12.464;2022-07-23T08:30:14;2.55;;;1.55;;
68854;SDS011;55859;55.710;12.464;2022-07-23T08:32:48;1.50;;;1.15;;
68854;SDS011;55859;55.710;12.464;2022-07-23T08:35:17;2.28;;;1.42;;
68854;SDS011;55859;55.710;12.464;2022-07-23T08:37:47;2.50;;;1.40;;
68854;SDS011;55859;55.710;12.464;2022-07-23T08:40:12;1.50;;;1.40;;
68854;SDS011;55859;55.710;12.464;2022-07-23T08:42:38;3.35;;;1.42;;
68854;SDS011;55859;55.710;12.464;2022-07-23T08:45:04;1.33;;;1.23;;
68854;SDS011;55859;55.710;12.464;2022-07-23T08:47:32;1.13;;;0.90;;
68854;SDS011;55859;55.710;12.464;2022-07-23T08:49:58;0.70;;;0.70;;
68854;SDS011;55859;55.710;12.464;2022-07-23T08:52:24;0.63;;;0.60;;
68854;SDS011;55859;55.710;12.464;2022-07-23T08:54:50;1.00;;;1.00;;
68854;SDS011;55859;55.710;12.464;2022-07-23T08:57:16;0.90;;;0.80;;
68854;SDS011;55859;55.710;12.464;2022-07-23T08:59:41;0.80;;;0.80;;
68854;SDS011;55859;55.710;12.464;2022-07-23T09:02:07;0.80;;;0.80;;
68854;SDS011;55859;55.710;12.464;2022-07-23T09:04:32;1.20;;;1.00;;
68854;SDS011;55859;55.710;12.464;2022-07-23T09:06:57;0.60;;;0.60;;
68854;SDS011;55859;55.710;12.464;2022-07-23T09:09:24;0.80;;;0.77;;
68854;SDS011;55859;55.710;12.464;2022-07-23T09:12:02;0.70;;;0.70;;
68854;SDS011;55859;55.710;12.464;2022-07-23T09:14:42;0.68;;;0.68;;
68854;SDS011;55859;55.710;12.464;2022-07-23T09:17:12;0.60;;;0.60;;
68854;SDS011;55859;55.710;12.464;2022-07-23T09:19:39;2.25;;;0.70;;
68854;SDS011;55859;55.710;12.464;2022-07-23T09:22:25;1.40;;;0.98;;
68854;SDS011;55859;55.710;12.464;2022-07-23T09:30:11;0.70;;;0.70;;
68854;SDS011;55859;55.710;12.464;2022-07-23T09:32:37;1.58;;;0.90;;
68854;SDS011;55859;55.710;12.464;2022-07-23T09:35:04;0.63;;;0.60;;
68854;SDS011;55859;55.710;12.464;2022-07-23T09:37:29;0.80;;;0.80;;
68854;SDS011;55859;55.710;12.464;2022-07-23T09:40:02;2.38;;;0.77;;
68854;SDS011;55859;55.710;12.464;2022-07-23T09:42:33;1.15;;;1.08;;
68854;SDS011;55859;55.710;12.464;2022-07-23T09:44:59;0.95;;;0.95;;
68854;SDS011;55859;55.710;12.464;2022-07-23T09:47:26;1.15;;;1.05;;
68854;SDS011;55859;55.710;12.464;2022-07-23T09:50:04;1.00;;;1.00;;
68854;SDS011;55859;55.710;12.464;2022-07-23T09:52:49;1.00;;;1.00;;
68854;SDS011;55859;55.710;12.464;2022-07-23T09:55:15;1.27;;;1.17;;
68854;SDS011;55859;55.710;12.464;2022-07-23T09:57:42;0.90;;;0.90;;
68854;SDS011;55859;55.710;12.464;2022-07-23T10:00:15;1.58;;;1.33;;
68854;SDS011;55859;55.710;12.464;2022-07-23T10:02:40;0.93;;;0.90;;
68854;SDS011;55859;55.710;12.464;2022-07-23T10:05:06;1.50;;;1.23;;
68854;SDS011;55859;55.710;12.464;2022-07-23T10:07:33;1.05;;;0.90;;
68854;SDS011;55859;55.710;12.464;2022-07-23T10:10:03;0.90;;;0.90;;
68854;SDS011;55859;55.710;12.464;2022-07-23T10:12:29;0.90;;;0.90;;
68854;SDS011;55859;55.710;12.464;2022-07-23T10:15:00;1.25;;;1.15;;
68854;SDS011;55859;55.710;12.464;2022-07-23T10:17:30;1.67;;;0.80;;
68854;SDS011;55859;55.710;12.464;2022-07-23T10:19:56;0.70;;;0.70;;
68854;SDS011;55859;55.710;12.464;2022-07-23T10:22:22;2.00;;;0.93;;
68854;SDS011;55859;55.710;12.464;2022-07-23T10:33:30;1.02;;;0.98;;
68854;SDS011;55859;55.710;12.464;2022-07-23T10:36:52;1.10;;;1.00;;
68854;SDS011;55859;55.710;12.464;2022-07-23T10:41:44;1.17;;;1.00;;
68854;SDS011;55859;55.710;12.464;2022-07-23T10:46:36;1.75;;;0.93;;
68854;SDS011;55859;55.710;12.464;2022-07-23T10:49:24;0.93;;;0.85;;
68854;SDS011;55859;55.710;12.464;2022-07-23T10:54:39;2.15;;;0.88;;
68854;SDS011;55859;55.710;12.464;2022-07-23T10:57:08;0.40;;;0.40;;
68854;SDS011;55859;55.710;12.464;2022-07-23T11:02:35;0.60;;;0.60;;
68854;SDS011;55859;55.710;12.464;2022-07-23T11:05:05;0.45;;;0.45;;
68854;SDS011;55859;55.710;12.464;2022-07-23T11:07:33;2.40;;;0.60;;
68854;SDS011;55859;55.710;12.464;2022-07-23T11:09:59;0.80;;;0.60;;
68854;SDS011;55859;55.710;12.464;2022-07-23T11:15:08;1.15;;;1.05;;
68854;SDS011;55859;55.710;12.464;2022-07-23T11:20:16;0.50;;;0.50;;
68854;SDS011;55859;55.710;12.464;2022-07-23T11:22:52;0.80;;;0.80;;
68854;SDS011;55859;55.710;12.464;2022-07-23T11:27:45;0.60;;;0.60;;
68854;SDS011;55859;55.710;12.464;2022-07-23T11:32:53;1.42;;;0.95;;
68854;SDS011;55859;55.710;12.464;2022-07-23T11:35:23;1.02;;;0.90;;
68854;SDS011;55859;55.710;12.464;2022-07-23T11:37:53;1.33;;;1.00;;
68854;SDS011;55859;55.710;12.464;2022-07-23T11:40:27;0.80;;;0.80;;
68854;SDS011;55859;55.710;12.464;2022-07-23T11:42:54;1.52;;;0.90;;
68854;SDS011;55859;55.710;12.464;2022-07-23T11:45:22;1.20;;;1.10;;
68854;SDS011;55859;55.710;12.464;2022-07-23T11:47:49;1.17;;;1.17;;
68854;SDS011;55859;55.710;12.464;2022-07-23T11:50:15;1.83;;;1.07;;
68854;SDS011;55859;55.710;12.464;2022-07-23T11:52:40;1.20;;;1.10;;
68854;SDS011;55859;55.710;12.464;2022-07-23T11:55:07;1.20;;;1.08;;
68854;SDS011;55859;55.710;12.464;2022-07-23T11:57:36;0.90;;;0.90;;
68854;SDS011;55859;55.710;12.464;2022-07-23T12:02:31;1.00;;;0.90;;
68854;SDS011;55859;55.710;12.464;2022-07-23T12:04:57;2.22;;;0.90;;
68854;SDS011;55859;55.710;12.464;2022-07-23T12:09:50;0.90;;;0.90;;
68854;SDS011;55859;55.710;12.464;2022-07-23T12:12:16;1.10;;;1.00;;
68854;SDS011;55859;55.710;12.464;2022-07-23T12:14:52;0.73;;;0.73;;
68854;SDS011;55859;55.710;12.464;2022-07-23T12:17:19;0.90;;;0.90;;
68854;SDS011;55859;55.710;12.464;2022-07-23T12:19:45;0.80;;;0.70;;
68854;SDS011;55859;55.710;12.464;2022-07-23T12:22:12;0.80;;;0.80;;
68854;SDS011;55859;55.710;12.464;2022-07-23T12:27:29;1.33;;;0.70;;
68854;SDS011;55859;55.710;12.464;2022-07-23T12:29:54;0.40;;;0.40;;
68854;SDS011;55859;55.710;12.464;2022-07-23T12:32:24;0.50;;;0.50;;
68854;SDS011;55859;55.710;12.464;2022-07-23T12:35:12;1.52;;;0.50;;
68854;SDS011;55859;55.710;12.464;2022-07-23T12:37:37;0.35;;;0.35;;
68854;SDS011;55859;55.710;12.464;2022-07-23T12:40:20;0.45;;;0.40;;
68854;SDS011;55859;55.710;12.464;2022-07-23T12:42:51;0.70;;;0.35;;
68854;SDS011;55859;55.710;12.464;2022-07-23T12:45:18;0.35;;;0.35;;
68854;SDS011;55859;55.710;12.464;2022-07-23T12:47:57;0.30;;;0.28;;
68854;SDS011;55859;55.710;12.464;2022-07-23T12:50:31;0.35;;;0.32;;
68854;SDS011;55859;55.710;12.464;2022-07-23T12:53:15;0.50;;;0.28;;
68854;SDS011;55859;55.710;12.464;2022-07-23T12:55:43;0.40;;;0.30;;
68854;SDS011;55859;55.710;12.464;2022-07-23T12:58:11;0.38;;;0.28;;
68854;SDS011;55859;55.710;12.464;2022-07-23T13:03:23;0.30;;;0.30;;
68854;SDS011;55859;55.710;12.464;2022-07-23T13:05:50;0.30;;;0.30;;
68854;SDS011;55859;55.710;12.464;2022-07-23T13:08:16;0.22;;;0.22;;
68854;SDS011;55859;55.710;12.464;2022-07-23T13:10:42;0.30;;;0.30;;
68854;SDS011;55859;55.710;12.464;2022-07-23T13:13:10;0.30;;;0.30;;
68854;SDS011;55859;55.710;12.464;2022-07-23T13:15:36;0.82;;;0.43;;
68854;SDS011;55859;55.710;12.464;2022-07-23T13:18:01;0.47;;;0.47;;
68854;SDS011;55859;55.710;12.464;2022-07-23T13:20:26;0.50;;;0.50;;
68854;SDS011;55859;55.710;12.464;2022-07-23T13:22:52;0.40;;;0.40;;
68854;SDS011;55859;55.710;12.464;2022-07-23T13:25:18;0.50;;;0.50;;
68854;SDS011;55859;55.710;12.464;2022-07-23T13:27:43;0.40;;;0.38;;
68854;SDS011;55859;55.710;12.464;2022-07-23T13:30:09;2.35;;;0.60;;
68854;SDS011;55859;55.710;12.464;2022-07-23T13:32:35;0.40;;;0.40;;
68854;SDS011;55859;55.710;12.464;2022-07-23T13:35:02;0.47;;;0.47;;
68854;SDS011;55859;55.710;12.464;2022-07-23T13:37:27;0.40;;;0.40;;
68854;SDS011;55859;55.710;12.464;2022-07-23T13:39:52;0.53;;;0.53;;
68854;SDS011;55859;55.710;12.464;2022-07-23T13:42:18;0.50;;;0.50;;
68854;SDS011;55859;55.710;12.464;2022-07-23T13:44:43;0.50;;;0.50;;
68854;SDS011;55859;55.710;12.464;2022-07-23T13:47:08;0.53;;;0.50;;
68854;SDS011;55859;55.710;12.464;2022-07-23T13:49:34;0.50;;;0.50;;
68854;SDS011;55859;55.710;12.464;2022-07-23T13:51:59;0.80;;;0.60;;
68854;SDS011;55859;55.710;12.464;2022-07-23T13:54:24;2.07;;;0.70;;
68854;SDS011;55859;55.710;12.464;2022-07-23T13:56:50;0.73;;;0.50;;
68854;SDS011;55859;55.710;12.464;2022-07-23T13:59:15;1.35;;;0.50;;
68854;SDS011;55859;55.710;12.464;2022-07-23T14:01:40;0.67;;;0.50;;
68854;SDS011;55859;55.710;12.464;2022-07-23T14:04:06;0.83;;;0.50;;
68854;SDS011;55859;55.710;12.464;2022-07-23T14:06:31;0.60;;;0.40;;
68854;SDS011;55859;55.710;12.464;2022-07-23T14:08:56;1.20;;;0.50;;
68854;SDS011;55859;55.710;12.464;2022-07-23T14:11:21;0.73;;;0.50;;
68854;SDS011;55859;55.710;12.464;2022-07-23T14:13:47;0.28;;;0.28;;
68854;SDS011;55859;55.710;12.464;2022-07-23T14:16:12;1.27;;;0.30;;
68854;SDS011;55859;55.710;12.464;2022-07-23T14:18:37;0.40;;;0.30;;
68854;SDS011;55859;55.710;12.464;2022-07-23T14:21:03;0.28;;;0.22;;
68854;SDS011;55859;55.710;12.464;2022-07-23T14:23:28;0.30;;;0.25;;
68854;SDS011;55859;55.710;12.464;2022-07-23T14:25:54;0.15;;;0.15;;
68854;SDS011;55859;55.710;12.464;2022-07-23T14:28:19;0.20;;;0.20;;
68854;SDS011;55859;55.710;12.464;2022-07-23T14:30:44;0.45;;;0.45;;
68854;SDS011;55859;55.710;12.464;2022-07-23T14:33:10;0.20;;;0.20;;
68854;SDS011;55859;55.710;12.464;2022-07-23T14:35:36;0.22;;;0.10;;
68854;SDS011;55859;55.710;12.464;2022-07-23T14:38:04;0.13;;;0.10;;
68854;SDS011;55859;55.710;12.464;2022-07-23T14:40:29;0.40;;;0.30;;
68854;SDS011;55859;55.710;12.464;2022-07-23T14:42:54;1.40;;;0.20;;
68854;SDS011;55859;55.710;12.464;2022-07-23T14:45:20;0.10;;;0.10;;
68854;SDS011;55859;55.710;12.464;2022-07-23T14:47:46;0.15;;;0.15;;
68854;SDS011;55859;55.710;12.464;2022-07-23T14:50:12;0.30;;;0.30;;
68854;SDS011;55859;55.710;12.464;2022-07-23T14:52:37;0.15;;;0.15;;
68854;SDS011;55859;55.710;12.464;2022-07-23T14:55:02;0.65;;;0.38;;
68854;SDS011;55859;55.710;12.464;2022-07-23T14:57:28;2.58;;;0.20;;
68854;SDS011;55859;55.710;12.464;2022-07-23T14:59:54;1.38;;;0.28;;
68854;SDS011;55859;55.710;12.464;2022-07-23T15:02:19;0.22;;;0.22;;
68854;SDS011;55859;55.710;12.464;2022-07-23T15:04:45;1.55;;;0.20;;
68854;SDS011;55859;55.710;12.464;2022-07-23T15:07:10;0.10;;;0.10;;
68854;SDS011;55859;55.710;12.464;2022-07-23T15:09:36;0.35;;;0.20;;
68854;SDS011;55859;55.710;12.464;2022-07-23T15:12:01;0.20;;;0.20;;
68854;SDS011;55859;55.710;12.464;2022-07-23T15:14:27;0.20;;;0.20;;
68854;SDS011;55859;55.710;12.464;2022-07-23T15:16:52;0.45;;;0.30;;
68854;SDS011;55859;55.710;12.464;2022-07-23T15:19:17;0.20;;;0.20;;